Nonthaburi, Thailand
Current Conditions -  °F | °C
As of 10:00 AM on Saturday 25 Oct 2014 (Local Time) from VTBD Reporting Station
Broken Clouds Broken Clouds  
Wind Chill: 29°   Ceiling: 12000
Heat Index: 34°   Visibility: 6mi
Dew Point: 24°   Wind: 5mph
Humidity: 74%   Direction: 40°NE
Pressure: 29.91"   Gusts: NA
Location:  13.84°N, 100.52°E
Report Text: VTBD 250300Z 04004KT 360V090 9999 SCT020 BKN120 BKN300 29/24 Q1013 NOSIG
Loading
Personal Weather Stations






























Interactive Weather Map
Tropical Storm Tracking
New forecast layout! Learn more

10-Day Weather Forecast

Advertisements
Track Severe Weather on mobile